Time;durP1;ratioP1;P1;durP2;ratioP2;P2;SDS_P1;SDS_P2;PMS_P1;PMS_P2;Temp;Humidity;BMP_temperature;BMP_pressure;BME280_temperature;BME280_humidity;BME280_pressure;Samples;Min_cycle;Max_cycle;Signal;HPM_P1;HPM_P2
2024/04/05 00:01:50;;;;;;;25.05;4.45;;;10.60;99.90;;;;;;5044542;28;20491;-84
2024/04/05 00:04:17;;;;;;;35.17;4.32;;;10.70;99.90;;;;;;5042698;28;20045;-84
2024/04/05 00:06:44;;;;;;;35.55;5.45;;;10.70;99.90;;;;;;5039409;28;20045;-84
2024/04/05 00:09:10;;;;;;;27.15;4.25;;;10.80;99.90;;;;;;5065942;28;20057;-84
2024/04/05 00:11:38;;;;;;;32.97;4.70;;;10.70;99.90;;;;;;5041291;28;20038;-84
2024/04/05 00:14:05;;;;;;;30.42;4.75;;;10.60;99.90;;;;;;5036646;28;20038;-84
2024/04/05 00:16:31;;;;;;;38.80;4.88;;;10.70;99.90;;;;;;5038298;28;20095;-84
2024/04/05 00:18:58;;;;;;;29.30;4.72;;;10.70;99.90;;;;;;5053451;28;20083;-84
2024/04/05 00:21:25;;;;;;;32.70;4.07;;;10.60;99.90;;;;;;5054846;28;20030;-84
2024/04/05 00:23:51;;;;;;;30.27;4.72;;;10.60;99.90;;;;;;5054435;28;20038;-84
2024/04/05 00:26:18;;;;;;;30.92;4.85;;;10.60;99.90;;;;;;5053888;28;20119;-84
2024/04/05 00:28:45;;;;;;;35.83;5.30;;;10.60;99.90;;;;;;5066747;28;20038;-84
2024/04/05 00:31:11;;;;;;;35.42;5.40;;;10.50;99.90;;;;;;5048698;28;20052;-84
2024/04/05 00:33:38;;;;;;;29.20;4.78;;;10.50;99.90;;;;;;5040363;28;20117;-84
2024/04/05 00:36:05;;;;;;;35.90;4.68;;;10.70;99.90;;;;;;5053676;28;21531;-84
2024/04/05 00:38:32;;;;;;;35.63;4.25;;;10.50;99.90;;;;;;5048339;28;20038;-84
2024/04/05 00:40:59;;;;;;;30.75;4.90;;;10.40;99.90;;;;;;5044979;28;20383;-84
2024/04/05 00:43:25;;;;;;;23.35;3.92;;;10.50;99.90;;;;;;5033869;28;20034;-83
2024/04/05 00:45:52;;;;;;;41.88;4.88;;;10.50;99.90;;;;;;5049948;28;20084;-83
2024/04/05 00:48:21;;;;;;;29.08;5.35;;;10.50;99.90;;;;;;5040897;28;20044;-84
2024/04/05 00:50:51;;;;;;;30.60;5.60;;;10.70;99.90;;;;;;5043670;28;20084;-84
2024/04/05 00:53:25;;;;;;;22.92;3.88;;;10.50;99.90;;;;;;5048203;28;20038;-84
2024/04/05 00:55:55;;;;;;;28.90;4.30;;;10.90;99.90;;;;;;5053155;28;20065;-84
2024/04/05 00:58:22;;;;;;;25.02;4.43;;;10.50;99.90;;;;;;5044356;28;20091;-84
2024/04/05 01:00:49;;;;;;;27.08;3.72;;;10.50;99.90;;;;;;5042127;28;20031;-84
2024/04/05 01:03:15;;;;;;;26.35;3.92;;;10.40;99.90;;;;;;5038249;28;20038;-84
2024/04/05 01:05:42;;;;;;;22.02;3.40;;;10.40;99.90;;;;;;5042259;28;20033;-84
2024/04/05 01:08:10;;;;;;;22.48;3.47;;;10.40;99.90;;;;;;5037902;28;20045;-84
2024/04/05 01:10:37;;;;;;;27.17;3.75;;;10.40;99.90;;;;;;5040549;28;20511;-84
2024/04/05 01:13:06;;;;;;;29.65;4.07;;;10.40;99.90;;;;;;5041582;28;20112;-84
2024/04/05 01:15:33;;;;;;;22.60;4.03;;;10.30;99.90;;;;;;5043427;28;20041;-84
2024/04/05 01:18:02;;;;;;;29.35;3.72;;;10.30;99.90;;;;;;5060226;28;20628;-84
2024/04/05 01:20:31;;;;;;;27.70;3.83;;;10.30;99.90;;;;;;5043338;28;20041;-84
2024/04/05 01:23:01;;;;;;;25.40;3.92;;;10.30;99.90;;;;;;5036267;28;20042;-84
2024/04/05 01:25:29;;;;;;;22.77;3.60;;;10.30;99.90;;;;;;5046319;28;20041;-84
2024/04/05 01:27:56;;;;;;;24.15;3.58;;;10.30;99.90;;;;;;5041513;28;20049;-84
2024/04/05 01:30:23;;;;;;;21.52;3.78;;;10.30;99.90;;;;;;5040733;28;20125;-84
2024/04/05 01:32:58;;;;;;;22.30;3.67;;;10.60;99.90;;;;;;5040148;28;20120;-84
2024/04/05 01:35:26;;;;;;;22.10;3.40;;;10.20;99.90;;;;;;5049024;28;20121;-84
2024/04/05 01:37:54;;;;;;;32.78;4.72;;;10.20;99.90;;;;;;5040535;28;20072;-84
2024/04/05 01:40:21;;;;;;;19.02;2.72;;;10.20;99.90;;;;;;5036604;28;20037;-84
2024/04/05 01:42:47;;;;;;;22.55;4.38;;;10.40;99.90;;;;;;5042679;28;20045;-83
2024/04/05 01:45:14;;;;;;;24.15;3.67;;;10.10;99.90;;;;;;5038948;28;20049;-84
2024/04/05 01:47:42;;;;;;;22.25;3.30;;;10.10;99.90;;;;;;5051914;28;20033;-84
2024/04/05 01:50:09;;;;;;;23.05;3.17;;;10.20;99.90;;;;;;5042139;28;20120;-84
2024/04/05 01:52:36;;;;;;;25.55;3.40;;;10.20;99.90;;;;;;5048522;28;20574;-84
2024/04/05 01:55:03;;;;;;;30.77;3.95;;;10.40;99.90;;;;;;5052521;28;20064;-84
2024/04/05 01:57:33;;;;;;;19.50;3.05;;;10.10;99.90;;;;;;5052195;28;20082;-84
2024/04/05 02:00:00;;;;;;;19.92;3.70;;;10.10;99.90;;;;;;5067068;28;20061;-84
2024/04/05 02:02:27;;;;;;;26.05;3.70;;;10.10;99.90;;;;;;5044600;28;20069;-84
2024/04/05 02:04:54;;;;;;;26.92;3.38;;;10.10;99.90;;;;;;5052275;28;20048;-84
2024/04/05 02:07:21;;;;;;;24.98;4.57;;;10.20;99.90;;;;;;5057217;28;20053;-84
2024/04/05 02:09:49;;;;;;;23.42;4.10;;;10.20;99.90;;;;;;5038923;28;20046;-84
2024/04/05 02:12:16;;;;;;;20.40;3.40;;;10.20;99.90;;;;;;5039245;28;20065;-84
2024/04/05 02:14:43;;;;;;;21.40;4.13;;;10.20;99.90;;;;;;5040546;28;20041;-84
2024/04/05 02:17:10;;;;;;;26.33;4.28;;;10.20;99.90;;;;;;5041603;28;20044;-84
2024/04/05 02:19:37;;;;;;;19.85;3.50;;;10.30;99.90;;;;;;5038610;28;20033;-84
2024/04/05 02:22:05;;;;;;;19.23;3.28;;;10.40;99.90;;;;;;5042862;28;20077;-84
2024/04/05 02:24:32;;;;;;;24.02;3.90;;;10.30;99.90;;;;;;5034752;28;20044;-84
2024/04/05 02:27:00;;;;;;;19.92;3.33;;;10.30;99.90;;;;;;5043828;28;20048;-84
2024/04/05 02:29:27;;;;;;;25.05;3.80;;;10.30;99.90;;;;;;5046891;28;20060;-84
2024/04/05 02:31:54;;;;;;;21.60;3.40;;;11.00;99.90;;;;;;5054116;28;20107;-84
2024/04/05 02:34:21;;;;;;;23.02;2.97;;;10.40;99.90;;;;;;5033687;28;20038;-84
2024/04/05 02:36:51;;;;;;;20.80;3.50;;;10.30;99.90;;;;;;5048521;28;20042;-84
2024/04/05 02:39:18;;;;;;;19.77;3.08;;;10.40;99.90;;;;;;5035237;28;20037;-84
2024/04/05 02:41:46;;;;;;;21.25;3.10;;;10.30;99.90;;;;;;5044200;28;20063;-84
2024/04/05 02:44:13;;;;;;;23.95;3.70;;;10.20;99.90;;;;;;5035142;28;20042;-84
2024/04/05 02:46:40;;;;;;;23.45;3.65;;;10.20;99.90;;;;;;5036528;28;20077;-84
2024/04/05 02:49:07;;;;;;;25.52;3.40;;;11.00;99.90;;;;;;5047891;28;20068;-84
2024/04/05 02:51:34;;;;;;;24.73;3.40;;;10.20;99.90;;;;;;5041536;28;20068;-84
2024/04/05 02:54:01;;;;;;;25.77;3.47;;;10.40;99.90;;;;;;5032186;28;20061;-84
2024/04/05 02:56:27;;;;;;;20.67;4.25;;;10.20;99.90;;;;;;5035313;28;20092;-84
2024/04/05 02:58:56;;;;;;;20.85;3.42;;;10.20;99.90;;;;;;5040123;28;20034;-84
2024/04/05 03:01:24;;;;;;;23.65;2.88;;;10.20;99.90;;;;;;5044730;28;20038;-84
2024/04/05 03:03:51;;;;;;;23.10;3.00;;;10.20;99.90;;;;;;5041249;28;20053;-84
2024/04/05 03:06:20;;;;;;;24.27;3.78;;;10.40;99.90;;;;;;5042021;28;20039;-84
2024/04/05 03:08:46;;;;;;;23.73;3.47;;;10.30;99.90;;;;;;5037208;28;20054;-84
2024/04/05 03:11:13;;;;;;;23.00;3.58;;;10.20;99.90;;;;;;5048207;28;20136;-83
2024/04/05 03:13:40;;;;;;;24.42;3.65;;;10.20;99.90;;;;;;5051110;28;20065;-84
2024/04/05 03:16:07;;;;;;;22.10;3.83;;;10.20;99.90;;;;;;5037407;28;20074;-84
2024/04/05 03:18:34;;;;;;;22.35;3.22;;;10.20;99.90;;;;;;5055294;28;20118;-84
2024/04/05 03:21:00;;;;;;;20.15;3.33;;;10.20;99.90;;;;;;5046606;28;20046;-84
2024/04/05 03:23:27;;;;;;;16.60;3.25;;;10.20;99.90;;;;;;5041092;28;20045;-84
2024/04/05 03:25:55;;;;;;;23.70;3.83;;;10.80;99.90;;;;;;5044034;28;20550;-84
2024/04/05 03:28:21;;;;;;;19.15;3.75;;;10.30;99.90;;;;;;5043028;28;20132;-84
2024/04/05 03:30:48;;;;;;;19.67;3.88;;;10.20;99.90;;;;;;5043484;28;20125;-84
2024/04/05 03:33:14;;;;;;;22.42;3.97;;;10.30;99.90;;;;;;5030779;28;20037;-83
2024/04/05 03:35:42;;;;;;;21.50;3.65;;;10.20;99.90;;;;;;5037230;28;20049;-84
2024/04/05 03:38:10;;;;;;;17.60;3.17;;;10.60;99.90;;;;;;5039009;28;20450;-84
2024/04/05 03:40:38;;;;;;;21.52;4.07;;;10.30;99.90;;;;;;5036218;28;20066;-84
2024/04/05 03:43:08;;;;;;;21.30;3.60;;;10.30;99.90;;;;;;5054626;28;20533;-84
2024/04/05 03:45:36;;;;;;;24.45;3.55;;;10.30;99.90;;;;;;5041124;28;20092;-84
2024/04/05 03:48:03;;;;;;;20.08;3.20;;;10.30;99.90;;;;;;5037916;28;20045;-84
2024/04/05 03:50:29;;;;;;;26.45;4.25;;;10.30;99.90;;;;;;5034986;28;20121;-84
2024/04/05 03:52:56;;;;;;;22.25;4.03;;;10.30;99.90;;;;;;5054683;28;20038;-84
2024/04/05 03:55:23;;;;;;;24.25;3.97;;;10.30;99.90;;;;;;5037282;28;20033;-84
2024/04/05 03:57:52;;;;;;;24.83;4.40;;;10.30;99.90;;;;;;5058449;28;20042;-84
2024/04/05 04:00:21;;;;;;;28.52;4.60;;;10.30;99.90;;;;;;5047425;28;20087;-84
2024/04/05 04:02:55;;;;;;;26.23;4.18;;;10.30;99.90;;;;;;5034068;28;20442;-84
2024/04/05 04:05:22;;;;;;;24.40;3.85;;;10.30;99.90;;;;;;5052594;28;20038;-84
2024/04/05 04:07:49;;;;;;;26.55;4.00;;;10.30;99.90;;;;;;5050413;28;20062;-84
2024/04/05 04:10:16;;;;;;;30.60;4.10;;;10.40;99.90;;;;;;5039182;28;20042;-84
2024/04/05 04:12:42;;;;;;;23.95;4.40;;;10.40;99.90;;;;;;5053251;28;20042;-84
2024/04/05 04:15:11;;;;;;;26.88;3.80;;;10.80;99.90;;;;;;5059161;28;20407;-84
2024/04/05 04:17:38;;;;;;;24.75;4.00;;;10.40;99.90;;;;;;5029703;28;20535;-84
2024/04/05 04:20:06;;;;;;;17.98;3.47;;;10.40;99.90;;;;;;5047740;28;20183;-84
2024/04/05 04:22:33;;;;;;;21.95;3.63;;;10.30;99.90;;;;;;5020276;28;20045;-83
2024/04/05 04:25:00;;;;;;;27.38;4.30;;;10.60;99.90;;;;;;5050017;28;20037;-84
2024/04/05 04:27:27;;;;;;;27.50;4.22;;;10.40;99.90;;;;;;5065464;28;20052;-84
2024/04/05 04:29:57;;;;;;;19.20;3.28;;;10.40;99.90;;;;;;5049695;28;20132;-84
2024/04/05 04:32:25;;;;;;;19.52;3.97;;;10.40;99.90;;;;;;5036743;28;20052;-84
2024/04/05 04:34:52;;;;;;;18.30;4.10;;;10.60;99.90;;;;;;5062728;28;20120;-84
2024/04/05 04:37:20;;;;;;;25.65;4.20;;;10.40;99.90;;;;;;5031575;28;20042;-84
2024/04/05 04:39:47;;;;;;;26.48;4.28;;;10.40;99.90;;;;;;5057519;28;20038;-84
2024/04/05 04:42:14;;;;;;;18.98;3.55;;;10.40;99.90;;;;;;5031615;28;20030;-84
2024/04/05 04:44:40;;;;;;;23.92;4.05;;;10.40;99.90;;;;;;5045976;28;20037;-84
2024/04/05 04:47:07;;;;;;;20.25;3.53;;;10.40;99.90;;;;;;5044224;28;20045;-83
2024/04/05 04:49:35;;;;;;;19.20;3.53;;;10.40;99.90;;;;;;5039600;28;20048;-84
2024/04/05 04:52:02;;;;;;;23.42;4.05;;;10.40;99.90;;;;;;5040718;28;20044;-84
2024/04/05 04:54:29;;;;;;;21.17;3.42;;;10.40;99.90;;;;;;5042483;28;20088;-84
2024/04/05 04:56:55;;;;;;;19.02;3.55;;;10.40;99.90;;;;;;5031408;28;20038;-84
2024/04/05 04:59:28;;;;;;;23.95;3.70;;;10.80;99.90;;;;;;5054494;28;20118;-84
2024/04/05 05:01:56;;;;;;;20.60;3.53;;;10.50;99.90;;;;;;5035745;28;20040;-84
2024/04/05 05:04:22;;;;;;;25.40;4.25;;;10.40;99.90;;;;;;5048329;28;20095;-83
2024/04/05 05:06:50;;;;;;;25.83;3.63;;;10.40;99.90;;;;;;5036014;28;20053;-84
2024/04/05 05:09:17;;;;;;;17.48;3.40;;;10.50;99.90;;;;;;5033320;28;20042;-83
2024/04/05 05:11:45;;;;;;;17.60;3.08;;;10.50;99.90;;;;;;5036209;28;20041;-84
2024/04/05 05:14:12;;;;;;;22.17;3.75;;;10.50;99.90;;;;;;5035166;28;20061;-83
2024/04/05 05:16:39;;;;;;;20.30;3.42;;;10.50;99.90;;;;;;5054573;28;20042;-84
2024/04/05 05:19:07;;;;;;;23.58;3.45;;;10.40;99.90;;;;;;5037943;28;20046;-84
2024/04/05 05:21:35;;;;;;;15.00;3.17;;;10.50;99.90;;;;;;5060341;28;20052;-84
2024/04/05 05:24:02;;;;;;;17.77;3.13;;;10.50;99.90;;;;;;5045477;28;20513;-84
2024/04/05 05:26:28;;;;;;;24.23;3.65;;;10.50;99.90;;;;;;5046569;28;20475;-84
2024/04/05 05:28:55;;;;;;;28.38;3.70;;;10.50;99.90;;;;;;5049383;28;20111;-84
2024/04/05 05:31:22;;;;;;;15.65;3.33;;;10.50;99.90;;;;;;5032840;28;20080;-84
2024/04/05 05:33:49;;;;;;;19.52;4.18;;;11.20;99.90;;;;;;5036278;28;20038;-84
2024/04/05 05:36:16;;;;;;;23.05;3.83;;;10.50;99.90;;;;;;5041629;28;20033;-84
2024/04/05 05:38:42;;;;;;;17.70;2.85;;;10.50;99.90;;;;;;5049851;28;20045;-84
2024/04/05 05:41:09;;;;;;;24.30;3.40;;;10.50;99.90;;;;;;5043786;28;20040;-84
2024/04/05 05:43:36;;;;;;;19.35;3.33;;;10.50;99.90;;;;;;5044753;28;20043;-84
2024/04/05 05:46:03;;;;;;;17.05;3.45;;;10.50;99.90;;;;;;5056105;28;20491;-84
2024/04/05 05:48:29;;;;;;;21.20;3.58;;;10.60;99.90;;;;;;5052966;28;20103;-84
2024/04/05 05:50:56;;;;;;;21.98;3.47;;;10.80;99.90;;;;;;5039245;28;20040;-84
2024/04/05 05:53:23;;;;;;;26.38;3.50;;;10.60;99.90;;;;;;5060527;28;20038;-84
2024/04/05 05:55:50;;;;;;;22.52;3.47;;;10.60;99.90;;;;;;5045258;28;20172;-84
2024/04/05 05:58:17;;;;;;;21.45;3.72;;;10.60;99.90;;;;;;5042474;28;20060;-84
2024/04/05 06:00:44;;;;;;;18.88;3.10;;;10.70;99.90;;;;;;5043988;28;20042;-84
2024/04/05 06:03:11;;;;;;;20.95;3.53;;;10.70;99.90;;;;;;5044767;28;20049;-84
2024/04/05 06:05:38;;;;;;;20.80;3.30;;;10.70;99.90;;;;;;5038414;28;20037;-84
2024/04/05 06:08:06;;;;;;;30.05;4.15;;;10.80;99.90;;;;;;5040155;28;20141;-84
2024/04/05 06:10:33;;;;;;;25.42;3.58;;;10.80;99.90;;;;;;5045949;28;20092;-84
2024/04/05 06:13:01;;;;;;;23.60;3.40;;;10.80;99.90;;;;;;5043715;28;20037;-84
2024/04/05 06:15:28;;;;;;;17.15;3.35;;;10.90;99.90;;;;;;5064862;28;20116;-84
2024/04/05 06:17:54;;;;;;;18.05;3.85;;;10.90;99.90;;;;;;5032596;28;20073;-85
2024/04/05 06:20:21;;;;;;;19.67;3.50;;;10.90;99.90;;;;;;5043330;28;20069;-85
2024/04/05 06:22:47;;;;;;;19.35;3.70;;;11.00;99.90;;;;;;5049656;28;20038;-84
2024/04/05 06:25:14;;;;;;;16.52;3.10;;;11.00;99.90;;;;;;5048327;28;20069;-84
2024/04/05 06:27:42;;;;;;;20.83;4.30;;;11.10;99.90;;;;;;5055663;28;20037;-84
2024/04/05 06:30:10;;;;;;;20.20;3.45;;;11.10;99.90;;;;;;5039852;28;20100;-84
2024/04/05 06:32:37;;;;;;;26.20;4.28;;;11.20;99.90;;;;;;5038392;28;20048;-84
2024/04/05 06:35:05;;;;;;;26.10;4.53;;;11.30;99.90;;;;;;5036311;28;20033;-84
2024/04/05 06:37:33;;;;;;;15.80;3.30;;;11.20;99.90;;;;;;5036266;28;20030;-84
2024/04/05 06:40:01;;;;;;;21.17;3.88;;;11.30;99.90;;;;;;5036583;28;20029;-84
2024/04/05 06:42:27;;;;;;;17.50;3.47;;;11.30;99.90;;;;;;5045137;28;20062;-84
2024/04/05 06:44:54;;;;;;;23.00;4.10;;;11.50;99.90;;;;;;5040687;28;20159;-84
2024/04/05 06:47:21;;;;;;;18.63;3.60;;;11.40;99.90;;;;;;5045092;28;20037;-84
2024/04/05 06:49:48;;;;;;;15.85;2.97;;;11.40;99.90;;;;;;5038834;28;20176;-85
2024/04/05 06:52:14;;;;;;;19.90;3.80;;;11.50;99.90;;;;;;5039760;28;20121;-84
2024/04/05 06:54:43;;;;;;;18.27;3.88;;;11.60;99.90;;;;;;5051451;28;20041;-90
2024/04/05 06:57:12;;;;;;;22.98;3.55;;;11.60;99.90;;;;;;5035409;28;20089;-87
2024/04/05 06:59:39;;;;;;;25.73;3.97;;;11.60;99.90;;;;;;5031602;28;20034;-87
2024/04/05 07:02:06;;;;;;;20.40;3.47;;;11.70;99.90;;;;;;5046568;28;20040;-87
2024/04/05 07:04:33;;;;;;;17.95;3.30;;;11.70;99.90;;;;;;5041956;28;20038;-86
2024/04/05 07:07:00;;;;;;;23.17;4.22;;;11.80;99.90;;;;;;5055657;28;20517;-87
2024/04/05 07:09:29;;;;;;;17.13;3.55;;;11.80;99.90;;;;;;5054706;28;20490;-86
2024/04/05 07:11:58;;;;;;;22.02;4.40;;;11.90;99.90;;;;;;5040104;28;20037;-87
2024/04/05 07:14:24;;;;;;;21.60;4.05;;;12.50;99.90;;;;;;5037957;28;20137;-87
2024/04/05 07:16:52;;;;;;;21.17;3.35;;;12.00;99.90;;;;;;5044877;28;20044;-86
2024/04/05 07:19:19;;;;;;;20.17;4.25;;;12.20;99.90;;;;;;5040824;28;20037;-87
2024/04/05 07:21:47;;;;;;;18.95;3.70;;;12.10;99.90;;;;;;5032797;28;20089;-88
2024/04/05 07:24:14;;;;;;;18.95;4.05;;;12.10;99.90;;;;;;5057698;28;20049;-86
2024/04/05 07:26:42;;;;;;;16.15;3.83;;;12.20;99.90;;;;;;5044883;28;20084;-86
2024/04/05 07:29:10;;;;;;;19.80;3.95;;;12.20;99.90;;;;;;5044042;28;20083;-86
2024/04/05 07:31:37;;;;;;;17.63;3.20;;;12.20;99.90;;;;;;5035187;28;20046;-86
2024/04/05 07:34:05;;;;;;;22.63;4.07;;;12.30;99.90;;;;;;5033331;28;20096;-86
2024/04/05 07:36:32;;;;;;;14.82;3.60;;;12.30;99.90;;;;;;5033892;28;20034;-86
2024/04/05 07:38:59;;;;;;;16.83;3.17;;;12.40;99.90;;;;;;5044217;28;20044;-86
2024/04/05 07:41:26;;;;;;;20.45;3.55;;;12.40;99.90;;;;;;5032342;28;20076;-86
2024/04/05 07:43:53;;;;;;;18.02;3.78;;;12.40;99.90;;;;;;5043208;28;20049;-85
2024/04/05 07:46:23;;;;;;;22.38;4.10;;;12.40;99.90;;;;;;5039548;28;20041;-85
2024/04/05 07:48:50;;;;;;;18.27;3.78;;;12.50;99.90;;;;;;5040796;28;20040;-85
2024/04/05 07:51:17;;;;;;;16.00;3.60;;;12.50;99.90;;;;;;5030921;28;20498;-86
2024/04/05 07:53:47;;;;;;;16.60;3.85;;;12.50;99.90;;;;;;5034536;28;20555;-85
2024/04/05 07:56:14;;;;;;;16.63;3.92;;;12.60;99.90;;;;;;5034574;28;20096;-85
2024/04/05 07:58:41;;;;;;;15.20;3.60;;;12.70;99.90;;;;;;5034430;28;20041;-85
2024/04/05 08:01:08;;;;;;;16.33;4.78;;;12.80;99.90;;;;;;5034158;28;20117;-86
2024/04/05 08:03:35;;;;;;;10.90;2.92;;;12.80;99.90;;;;;;5034623;28;20044;-85
2024/04/05 08:06:01;;;;;;;19.25;4.18;;;12.90;99.90;;;;;;5036380;28;20128;-86
2024/04/05 08:08:28;;;;;;;13.68;3.83;;;13.00;99.90;;;;;;5043462;28;20402;-85
2024/04/05 08:10:59;;;;;;;14.80;3.70;;;13.10;99.90;;;;;;5060085;28;20576;-86
2024/04/05 08:13:26;;;;;;;15.50;3.90;;;13.10;99.90;;;;;;5036322;28;20038;-86
2024/04/05 08:15:53;;;;;;;15.25;3.53;;;13.30;99.90;;;;;;5033406;28;20091;-86
2024/04/05 08:18:20;;;;;;;17.67;3.63;;;13.40;99.90;;;;;;5036169;28;20116;-86
2024/04/05 08:20:47;;;;;;;14.00;4.38;;;13.40;99.90;;;;;;5036024;28;20041;-87
2024/04/05 08:23:13;;;;;;;13.95;3.60;;;13.50;99.90;;;;;;5032024;28;20033;-87
2024/04/05 08:25:40;;;;;;;14.38;3.58;;;13.60;99.90;;;;;;5037803;28;20065;-87
2024/04/05 08:28:07;;;;;;;16.70;3.63;;;13.70;99.90;;;;;;5030080;28;20514;-87
2024/04/05 08:30:33;;;;;;;17.50;3.90;;;13.70;99.90;;;;;;5033201;28;20562;-87
2024/04/05 08:33:00;;;;;;;15.73;3.50;;;13.80;99.90;;;;;;5035005;28;20120;-86
2024/04/05 08:35:27;;;;;;;12.35;3.30;;;13.80;99.90;;;;;;5052027;28;20034;-86
2024/04/05 08:38:01;;;;;;;14.88;3.38;;;13.80;99.90;;;;;;5032400;28;20030;-87
2024/04/05 08:40:28;;;;;;;13.73;3.45;;;13.90;99.90;;;;;;5053038;28;20487;-87
2024/04/05 08:43:00;;;;;;;23.65;4.38;;;13.90;99.90;;;;;;5032973;28;20034;-87
2024/04/05 08:45:33;;;;;;;16.02;4.20;;;14.00;99.90;;;;;;5036126;28;20045;-85
2024/04/05 08:48:04;;;;;;;17.52;3.92;;;14.00;99.90;;;;;;5057702;28;20503;-86
2024/04/05 08:50:34;;;;;;;20.42;3.90;;;14.10;99.90;;;;;;5053789;28;20061;-87
2024/04/05 08:53:01;;;;;;;15.75;3.47;;;14.10;99.90;;;;;;5044827;28;20046;-85
2024/04/05 08:55:28;;;;;;;13.15;3.30;;;14.20;99.90;;;;;;5049798;28;20088;-86
2024/04/05 08:57:55;;;;;;;14.15;3.55;;;14.10;99.90;;;;;;5037024;28;20406;-85
2024/04/05 09:00:25;;;;;;;12.73;3.63;;;14.20;99.90;;;;;;5045168;28;20521;-85
2024/04/05 09:02:58;;;;;;;12.70;3.33;;;14.20;99.90;;;;;;5033760;28;20418;-85
2024/04/05 09:05:24;;;;;;;11.13;2.95;;;14.20;99.90;;;;;;5033914;28;20407;-85
2024/04/05 09:08:11;;;;;;;9.60;2.65;;;14.30;99.90;;;;;;5040576;28;20053;-86
2024/04/05 09:10:37;;;;;;;12.80;3.17;;;14.30;99.90;;;;;;5039531;28;20472;-86
2024/04/05 09:13:04;;;;;;;13.82;2.90;;;14.30;99.90;;;;;;5038397;28;20045;-86
2024/04/05 09:15:32;;;;;;;10.38;2.60;;;14.30;99.90;;;;;;5033459;28;20037;-85
2024/04/05 09:17:59;;;;;;;8.38;2.60;;;14.40;99.90;;;;;;5033326;28;20042;-85
2024/04/05 09:20:29;;;;;;;11.10;2.90;;;14.40;99.90;;;;;;5033614;28;20539;-86
2024/04/05 09:23:02;;;;;;;11.73;2.60;;;14.40;99.90;;;;;;5038802;28;20044;-87
2024/04/05 09:25:30;;;;;;;11.75;3.13;;;14.40;99.90;;;;;;5043013;28;20713;-88
2024/04/05 09:28:05;;;;;;;13.25;3.30;;;14.50;99.90;;;;;;5040578;28;20788;-87
2024/04/05 09:30:31;;;;;;;14.77;3.20;;;14.40;99.90;;;;;;5043586;28;20061;-88
2024/04/05 09:32:58;;;;;;;11.45;3.33;;;14.40;99.90;;;;;;5045642;28;20384;-87
2024/04/05 09:35:26;;;;;;;10.07;2.80;;;14.30;99.90;;;;;;5039403;28;20033;-87
2024/04/05 09:37:54;;;;;;;9.98;2.88;;;14.30;99.90;;;;;;5052977;28;20045;-88
2024/04/05 09:40:24;;;;;;;11.35;3.17;;;14.10;99.90;;;;;;5037457;28;20126;-87
2024/04/05 09:42:57;;;;;;;10.10;2.95;;;14.00;99.90;;;;;;5040269;28;20049;-86
2024/04/05 09:45:24;;;;;;;12.05;2.85;;;14.00;99.90;;;;;;5038214;28;20041;-87
2024/04/05 09:47:52;;;;;;;11.77;3.22;;;13.90;99.90;;;;;;5041149;28;20053;-86
2024/04/05 09:50:22;;;;;;;16.65;3.38;;;13.80;99.90;;;;;;5041400;28;20128;-85
2024/04/05 09:52:54;;;;;;;8.63;2.90;;;13.70;99.90;;;;;;5049431;28;20409;-86
2024/04/05 09:55:28;;;;;;;12.45;3.10;;;13.60;99.90;;;;;;5036189;28;20120;-86
2024/04/05 09:57:55;;;;;;;13.18;2.90;;;13.60;99.90;;;;;;5049923;28;20033;-87
2024/04/05 10:00:27;;;;;;;12.18;3.25;;;13.50;99.90;;;;;;5034298;28;20041;-85
2024/04/05 10:02:58;;;;;;;10.48;2.63;;;13.50;99.90;;;;;;5035021;28;20438;-84
2024/04/05 10:05:25;;;;;;;8.60;2.42;;;13.50;99.90;;;;;;5043562;28;20514;-83
2024/04/05 10:07:52;;;;;;;7.53;2.70;;;13.50;99.90;;;;;;5049003;28;20057;-83
2024/04/05 10:10:34;;;;;;;10.15;2.75;;;13.50;99.90;;;;;;5051852;28;20070;-83
2024/04/05 10:13:17;;;;;;;10.82;2.83;;;13.50;99.90;;;;;;5038438;28;20517;-84
2024/04/05 10:15:58;;;;;;;15.10;4.55;;;13.30;99.90;;;;;;5044143;28;20407;-83
2024/04/05 10:18:30;;;;;;;11.40;2.72;;;13.40;99.90;;;;;;5031929;28;20474;-83
2024/04/05 10:21:11;;;;;;;8.45;2.67;;;13.30;99.90;;;;;;5033200;28;20121;-84
2024/04/05 10:23:40;;;;;;;17.00;3.90;;;13.20;99.90;;;;;;5040259;28;20030;-83
2024/04/05 10:26:10;;;;;;;13.65;2.95;;;13.30;99.90;;;;;;5034625;28;20049;-84
2024/04/05 10:28:38;;;;;;;12.95;3.40;;;13.20;99.90;;;;;;5032872;28;20096;-84
2024/04/05 10:31:07;;;;;;;18.27;3.38;;;13.20;99.90;;;;;;5042817;28;20056;-84
2024/04/05 10:33:35;;;;;;;8.93;2.83;;;13.20;99.90;;;;;;5060960;28;20072;-84
2024/04/05 10:36:02;;;;;;;16.52;4.75;;;13.20;99.90;;;;;;5034398;28;20040;-84
2024/04/05 10:38:29;;;;;;;13.32;4.32;;;13.20;99.90;;;;;;5054554;28;20104;-84
2024/04/05 10:40:58;;;;;;;16.33;3.53;;;13.20;99.90;;;;;;5050848;28;20045;-84
2024/04/05 10:43:25;;;;;;;12.70;3.22;;;13.20;99.90;;;;;;5046617;28;20406;-84
2024/04/05 10:45:53;;;;;;;12.05;3.30;;;13.20;99.90;;;;;;5037590;28;20042;-84
2024/04/05 10:48:22;;;;;;;12.80;3.40;;;13.20;99.90;;;;;;5031115;28;20049;-84
2024/04/05 10:50:49;;;;;;;15.40;3.50;;;13.20;99.90;;;;;;5056842;28;20042;-84
2024/04/05 10:53:17;;;;;;;12.98;3.85;;;13.20;99.90;;;;;;5060693;28;20033;-84
2024/04/05 10:55:47;;;;;;;12.50;3.08;;;13.40;99.90;;;;;;5038845;28;20122;-84
2024/04/05 10:58:14;;;;;;;14.65;3.15;;;13.20;99.90;;;;;;5034754;28;20096;-84
2024/04/05 11:00:41;;;;;;;10.70;3.55;;;13.20;99.90;;;;;;5047601;28;20414;-84
2024/04/05 11:03:09;;;;;;;13.38;3.40;;;13.20;99.90;;;;;;5033179;28;20046;-82
2024/04/05 11:05:36;;;;;;;12.77;3.45;;;13.20;99.90;;;;;;5041730;28;20033;-82
2024/04/05 11:08:05;;;;;;;13.77;4.45;;;13.20;99.90;;;;;;5034162;28;20065;-82
2024/04/05 11:10:33;;;;;;;13.93;3.60;;;13.20;99.90;;;;;;5035333;28;20085;-82
2024/04/05 11:13:12;;;;;;;13.57;3.50;;;13.30;99.90;;;;;;5036661;28;20410;-83
2024/04/05 11:15:39;;;;;;;12.02;3.47;;;13.30;99.90;;;;;;5044200;28;20037;-82
2024/04/05 11:18:06;;;;;;;11.35;3.25;;;13.50;99.90;;;;;;5038794;28;20026;-82
2024/04/05 11:20:35;;;;;;;11.27;3.08;;;13.70;99.90;;;;;;5034137;28;20037;-83
2024/04/05 11:23:03;;;;;;;13.45;3.67;;;13.80;99.90;;;;;;5038309;28;20037;-82
2024/04/05 11:25:31;;;;;;;12.52;3.25;;;13.80;99.90;;;;;;5037359;28;20053;-83
2024/04/05 11:27:58;;;;;;;16.55;3.05;;;13.80;99.90;;;;;;5039609;28;20081;-82
2024/04/05 11:30:25;;;;;;;12.70;2.92;;;13.80;99.90;;;;;;5036669;28;20072;-83
2024/04/05 11:32:51;;;;;;;9.35;2.75;;;13.90;99.90;;;;;;5053210;28;20063;-82
2024/04/05 11:35:18;;;;;;;12.18;2.85;;;14.00;99.90;;;;;;5034672;28;20034;-82
2024/04/05 11:37:45;;;;;;;10.63;2.75;;;14.00;99.90;;;;;;5036872;28;20555;-83
2024/04/05 11:40:13;;;;;;;7.95;2.92;;;13.90;99.90;;;;;;5050110;28;20038;-82
2024/04/05 11:42:41;;;;;;;9.40;2.40;;;13.90;99.90;;;;;;5034351;28;20037;-82
2024/04/05 11:45:09;;;;;;;9.95;2.80;;;13.90;99.90;;;;;;5031471;28;20117;-82
2024/04/05 11:47:36;;;;;;;6.22;2.13;;;13.80;99.90;;;;;;5043978;28;20121;-82
2024/04/05 11:50:04;;;;;;;9.77;2.63;;;13.80;99.90;;;;;;5040244;28;20049;-83
2024/04/05 11:52:31;;;;;;;8.15;2.63;;;13.70;99.90;;;;;;5036152;28;20049;-82
2024/04/05 11:54:59;;;;;;;9.40;2.50;;;13.70;99.90;;;;;;5044234;28;20038;-82
2024/04/05 11:57:25;;;;;;;9.93;2.65;;;13.80;99.90;;;;;;5035877;28;20042;-82
2024/04/05 11:59:52;;;;;;;7.90;2.60;;;13.80;99.90;;;;;;5050274;28;20041;-82
2024/04/05 12:02:19;;;;;;;10.38;2.60;;;13.80;99.90;;;;;;5048879;28;20073;-82
2024/04/05 12:04:47;;;;;;;10.13;2.45;;;13.80;99.90;;;;;;5032364;28;20072;-82
2024/04/05 12:07:13;;;;;;;8.68;2.78;;;13.80;99.90;;;;;;5029737;28;20061;-82
2024/04/05 12:09:40;;;;;;;6.32;2.42;;;13.80;99.90;;;;;;5037202;28;20546;-83
2024/04/05 12:12:08;;;;;;;8.93;2.80;;;13.80;99.90;;;;;;5033256;28;20034;-82
2024/04/05 12:14:35;;;;;;;9.32;2.40;;;13.90;99.90;;;;;;5047410;28;20073;-82
2024/04/05 12:17:03;;;;;;;9.25;2.50;;;13.80;99.90;;;;;;5036447;28;20127;-82
2024/04/05 12:19:29;;;;;;;9.70;2.83;;;13.90;99.90;;;;;;5032323;28;20080;-82
2024/04/05 12:21:56;;;;;;;6.68;2.50;;;13.90;99.90;;;;;;5034046;28;20038;-82
2024/04/05 12:24:23;;;;;;;9.98;2.83;;;13.90;99.90;;;;;;5043436;28;20128;-82
2024/04/05 12:26:50;;;;;;;8.90;2.35;;;13.90;99.90;;;;;;5040179;28;20088;-83
2024/04/05 12:29:16;;;;;;;12.88;2.88;;;13.90;99.90;;;;;;5048494;28;20041;-83
2024/04/05 12:31:43;;;;;;;8.82;2.50;;;13.90;99.90;;;;;;5041386;28;20050;-82
2024/04/05 12:34:09;;;;;;;11.40;3.00;;;13.90;99.90;;;;;;5041026;28;20041;-82
2024/04/05 12:36:37;;;;;;;6.40;2.47;;;13.80;99.90;;;;;;5036504;28;20069;-83
2024/04/05 12:39:14;;;;;;;9.13;3.42;;;13.80;99.90;;;;;;5032030;28;20080;-83
2024/04/05 12:41:41;;;;;;;10.15;2.70;;;13.80;99.90;;;;;;5051350;28;20147;-83